createdAt,value
2019-03-20T00:00:52.426Z,1026.18
2019-03-20T00:01:52.410Z,1026.19
2019-03-20T00:02:52.401Z,1026.15
2019-03-20T00:03:52.402Z,1026.12
2019-03-20T00:04:52.379Z,1026.13
2019-03-20T00:05:52.367Z,1026.16
2019-03-20T00:06:52.359Z,1026.16
2019-03-20T00:07:52.349Z,1026.09
2019-03-20T00:08:52.346Z,1026.15
2019-03-20T00:09:52.326Z,1026.21
2019-03-20T00:10:52.331Z,1026.22
2019-03-20T00:11:52.305Z,1026.21
2019-03-20T00:12:52.295Z,1026.26
2019-03-20T00:13:52.293Z,1026.20
2019-03-20T00:14:52.274Z,1026.24
2019-03-20T00:15:52.264Z,1026.22
2019-03-20T00:16:52.251Z,1026.31
2019-03-20T00:17:52.241Z,1026.34
2019-03-20T00:18:52.237Z,1026.27
2019-03-20T00:19:52.225Z,1026.30
2019-03-20T00:20:52.210Z,1026.29
2019-03-20T00:21:52.199Z,1026.26
2019-03-20T00:22:52.191Z,1026.26
2019-03-20T00:23:52.186Z,1026.22
2019-03-20T00:24:52.170Z,1026.22
2019-03-20T00:25:52.153Z,1026.25
2019-03-20T00:26:52.148Z,1026.31
2019-03-20T00:27:52.133Z,1026.27
2019-03-20T00:28:52.137Z,1026.26
2019-03-20T00:29:52.113Z,1026.30
2019-03-20T00:30:52.101Z,1026.31
2019-03-20T00:31:52.093Z,1026.28
2019-03-20T00:32:52.080Z,1026.33
2019-03-20T00:33:52.078Z,1026.35
2019-03-20T00:35:00.537Z,1026.37
2019-03-20T00:35:53.049Z,1026.38
2019-03-20T00:36:52.037Z,1026.37
2019-03-20T00:37:52.026Z,1026.35
2019-03-20T00:38:52.028Z,1026.26
2019-03-20T00:39:52.017Z,1026.26
2019-03-20T00:40:51.994Z,1026.26
2019-03-20T00:41:51.984Z,1026.24
2019-03-20T00:42:51.972Z,1026.33
2019-03-20T00:43:51.972Z,1026.28
2019-03-20T00:44:51.951Z,1026.27
2019-03-20T00:45:51.947Z,1026.26
2019-03-20T00:46:51.931Z,1026.23
2019-03-20T00:47:51.923Z,1026.26
2019-03-20T00:48:51.917Z,1026.31
2019-03-20T00:49:51.898Z,1026.29
2019-03-20T00:50:51.890Z,1026.35
2019-03-20T00:51:51.877Z,1026.31
2019-03-20T00:52:51.870Z,1026.35
2019-03-20T00:53:51.867Z,1026.25
2019-03-20T00:54:51.850Z,1026.20
2019-03-20T00:55:51.838Z,1026.30
2019-03-20T00:56:51.824Z,1026.25
2019-03-20T00:57:51.814Z,1026.27
2019-03-20T00:58:51.826Z,1026.24
2019-03-20T00:59:51.798Z,1026.24
2019-03-20T01:00:51.782Z,1026.30
2019-03-20T01:01:51.780Z,1026.27
2019-03-20T01:02:51.769Z,1026.27
2019-03-20T01:03:51.759Z,1026.27
2019-03-20T01:04:51.738Z,1026.30
2019-03-20T01:05:51.732Z,1026.22
2019-03-20T01:06:51.723Z,1026.33
2019-03-20T01:07:51.712Z,1026.22
2019-03-20T01:08:51.705Z,1026.26
2019-03-20T01:09:51.687Z,1026.22
2019-03-20T01:10:51.684Z,1026.22
2019-03-20T01:11:51.665Z,1026.29
2019-03-20T01:12:51.662Z,1026.32
2019-03-20T01:13:51.680Z,1026.28
2019-03-20T01:14:51.636Z,1026.24
2019-03-20T01:15:51.626Z,1026.27
2019-03-20T01:16:51.639Z,1026.32
2019-03-20T01:17:51.602Z,1026.29
2019-03-20T01:18:51.591Z,1026.22
2019-03-20T01:19:51.589Z,1026.31
2019-03-20T01:20:51.570Z,1026.24
2019-03-20T01:21:51.559Z,1026.27
2019-03-20T01:22:51.551Z,1026.31
2019-03-20T01:23:51.535Z,1026.32
2019-03-20T01:24:51.540Z,1026.29
2019-03-20T01:25:51.518Z,1026.27
2019-03-20T01:26:51.506Z,1026.28
2019-03-20T01:27:51.518Z,1026.26
2019-03-20T01:28:51.484Z,1026.22
2019-03-20T01:29:51.484Z,1026.29
2019-03-20T01:30:51.461Z,1026.22
2019-03-20T01:31:51.450Z,1026.31
2019-03-20T01:32:51.442Z,1026.25
2019-03-20T01:33:51.435Z,1026.27
2019-03-20T01:34:51.436Z,1026.36
2019-03-20T01:35:51.410Z,1026.30
2019-03-20T01:36:51.406Z,1026.26
2019-03-20T01:37:51.404Z,1026.30
2019-03-20T01:38:51.376Z,1026.28
2019-03-20T01:39:51.377Z,1026.24
2019-03-20T01:40:51.356Z,1026.29
2019-03-20T01:41:51.344Z,1026.32
2019-03-20T01:42:51.333Z,1026.36
2019-03-20T01:43:51.322Z,1026.29
2019-03-20T01:44:51.322Z,1026.31
2019-03-20T01:45:51.315Z,1026.33
2019-03-20T01:46:51.296Z,1026.29
2019-03-20T01:47:51.279Z,1026.36
2019-03-20T01:48:51.272Z,1026.33
2019-03-20T01:49:51.267Z,1026.36
2019-03-20T01:50:51.246Z,1026.35
2019-03-20T01:51:51.240Z,1026.38
2019-03-20T01:52:51.225Z,1026.34
2019-03-20T01:53:51.219Z,1026.34
2019-03-20T01:54:51.223Z,1026.34
2019-03-20T01:55:51.200Z,1026.41
2019-03-20T01:56:51.182Z,1026.40
2019-03-20T01:57:51.175Z,1026.40
2019-03-20T01:58:51.165Z,1026.36
2019-03-20T01:59:51.165Z,1026.43
2019-03-20T02:00:51.141Z,1026.36
2019-03-20T02:01:51.130Z,1026.42
2019-03-20T02:02:51.120Z,1026.37
2019-03-20T02:03:51.113Z,1026.41
2019-03-20T02:04:51.112Z,1026.34
2019-03-20T02:05:51.089Z,1026.37
2019-03-20T02:06:51.078Z,1026.36
2019-03-20T02:07:51.070Z,1026.38
2019-03-20T02:08:51.059Z,1026.33
2019-03-20T02:09:51.053Z,1026.43
2019-03-20T02:10:51.036Z,1026.46
2019-03-20T02:11:51.030Z,1026.45
2019-03-20T02:12:51.016Z,1026.43
2019-03-20T02:13:51.004Z,1026.45
2019-03-20T02:14:51.003Z,1026.43
2019-03-20T02:15:50.980Z,1026.40
2019-03-20T02:16:50.969Z,1026.44
2019-03-20T02:17:50.962Z,1026.48
2019-03-20T02:19:02.115Z,1026.43
2019-03-20T02:19:50.950Z,1026.49
2019-03-20T02:20:50.927Z,1026.55
2019-03-20T02:21:50.916Z,1026.58
2019-03-20T02:22:50.912Z,1026.50
2019-03-20T02:23:50.897Z,1026.59
2019-03-20T02:24:50.896Z,1026.61
2019-03-20T02:25:50.874Z,1026.54
2019-03-20T02:26:50.864Z,1026.57
2019-03-20T02:27:50.853Z,1026.56
2019-03-20T02:28:50.845Z,1026.57
2019-03-20T02:31:35.848Z,1026.52
2019-03-20T02:31:59.588Z,1026.59
2019-03-20T02:32:59.578Z,1026.56
2019-03-20T02:33:59.568Z,1026.55
2019-03-20T02:34:59.571Z,1026.51
2019-03-20T02:35:59.553Z,1026.58
2019-03-20T02:36:59.538Z,1026.50
2019-03-20T02:37:59.523Z,1026.52
2019-03-20T02:38:59.511Z,1026.53
2019-03-20T02:39:59.514Z,1026.50
2019-03-20T02:40:59.496Z,1026.46
2019-03-20T02:41:59.483Z,1026.43
2019-03-20T02:42:59.473Z,1026.48
2019-03-20T02:43:59.462Z,1026.45
2019-03-20T02:44:59.461Z,1026.45
2019-03-20T02:45:59.436Z,1026.45
2019-03-20T02:46:59.430Z,1026.49
2019-03-20T02:47:59.421Z,1026.51
2019-03-20T02:48:59.427Z,1026.56
2019-03-20T02:49:59.397Z,1026.51
2019-03-20T02:50:59.394Z,1026.49
2019-03-20T02:51:59.377Z,1026.52
2019-03-20T02:52:59.364Z,1026.48
2019-03-20T02:53:59.354Z,1026.54
2019-03-20T02:54:59.343Z,1026.55
2019-03-20T02:55:59.344Z,1026.52
2019-03-20T02:56:59.321Z,1026.60
2019-03-20T02:57:59.318Z,1026.59
2019-03-20T02:58:59.310Z,1026.61
2019-03-20T02:59:59.293Z,1026.71
2019-03-20T03:00:59.324Z,1026.76
2019-03-20T03:01:59.270Z,1026.74
2019-03-20T03:02:59.257Z,1026.63
2019-03-20T03:03:59.249Z,1026.60
2019-03-20T03:04:59.235Z,1026.70
2019-03-20T03:06:06.566Z,1026.70
2019-03-20T03:07:00.214Z,1026.69
2019-03-20T03:07:59.204Z,1026.74
2019-03-20T03:08:59.196Z,1026.73
2019-03-20T03:09:59.184Z,1026.75
2019-03-20T03:10:59.187Z,1026.74
2019-03-20T03:11:59.160Z,1026.69
2019-03-20T03:12:59.150Z,1026.75
2019-03-20T03:13:59.141Z,1026.73
2019-03-20T03:14:59.129Z,1026.76
2019-03-20T03:15:59.129Z,1026.75
2019-03-20T03:16:59.109Z,1026.67
2019-03-20T03:17:59.096Z,1026.72
2019-03-20T03:18:59.088Z,1026.74
2019-03-20T03:19:59.075Z,1026.75
2019-03-20T03:20:59.075Z,1026.66
2019-03-20T03:21:59.059Z,1026.76
2019-03-20T03:22:59.043Z,1026.80
2019-03-20T03:23:59.033Z,1026.76
2019-03-20T03:24:59.025Z,1026.80
2019-03-20T03:25:59.026Z,1026.81
2019-03-20T03:26:59.001Z,1026.79
2019-03-20T03:27:58.991Z,1026.75
2019-03-20T03:28:58.988Z,1026.71
2019-03-20T03:29:58.970Z,1026.75
2019-03-20T03:30:58.969Z,1026.72
2019-03-20T03:31:58.947Z,1026.73
2019-03-20T03:32:58.954Z,1026.66
2019-03-20T03:33:58.930Z,1026.71
2019-03-20T03:34:58.952Z,1026.67
2019-03-20T03:35:58.922Z,1026.67
2019-03-20T03:36:58.893Z,1026.64
2019-03-20T03:37:58.889Z,1026.62
2019-03-20T03:38:58.878Z,1026.68
2019-03-20T03:39:58.862Z,1026.70
2019-03-20T03:40:58.864Z,1026.71
2019-03-20T03:41:58.847Z,1026.74
2019-03-20T03:42:58.834Z,1026.75
2019-03-20T03:43:58.821Z,1026.79
2019-03-20T03:44:58.811Z,1026.79
2019-03-20T03:45:58.811Z,1026.76
2019-03-20T03:46:58.788Z,1026.74
2019-03-20T03:47:58.781Z,1026.82
2019-03-20T03:48:58.765Z,1026.81
2019-03-20T03:49:58.757Z,1026.75
2019-03-20T03:50:58.755Z,1026.84
2019-03-20T03:51:58.733Z,1026.82
2019-03-20T03:52:58.722Z,1026.86
2019-03-20T03:53:58.715Z,1026.80
2019-03-20T03:54:58.703Z,1026.83
2019-03-20T03:55:58.709Z,1026.87
2019-03-20T03:56:58.680Z,1026.85
2019-03-20T03:57:58.671Z,1026.82
2019-03-20T03:58:58.659Z,1026.86
2019-03-20T03:59:58.651Z,1026.83
2019-03-20T04:00:58.648Z,1026.78
2019-03-20T04:01:58.628Z,1026.85
2019-03-20T04:02:58.621Z,1026.83
2019-03-20T04:03:58.607Z,1026.82
2019-03-20T04:04:58.597Z,1026.91
2019-03-20T04:05:58.594Z,1026.86
2019-03-20T04:06:58.576Z,1026.83
2019-03-20T04:07:58.563Z,1026.81
2019-03-20T04:08:58.559Z,1026.85
2019-03-20T04:09:58.553Z,1026.82
2019-03-20T04:10:58.543Z,1026.87
2019-03-20T04:11:58.522Z,1026.87
2019-03-20T04:12:58.510Z,1026.86
2019-03-20T04:13:58.499Z,1026.91
2019-03-20T04:14:58.491Z,1026.92
2019-03-20T04:15:58.496Z,1026.92
2019-03-20T04:16:58.468Z,1026.99
2019-03-20T04:17:58.461Z,1026.97
2019-03-20T04:18:58.451Z,1026.97
2019-03-20T04:19:58.438Z,1026.89
2019-03-20T04:20:58.451Z,1026.93
2019-03-20T04:21:58.415Z,1026.94
2019-03-20T04:22:58.404Z,1026.90
2019-03-20T04:23:58.395Z,1026.96
2019-03-20T04:24:58.405Z,1026.93
2019-03-20T04:25:58.370Z,1026.94
2019-03-20T04:26:58.375Z,1027.01
2019-03-20T04:27:58.350Z,1026.91
2019-03-20T04:28:58.344Z,1027.01
2019-03-20T04:29:58.382Z,1026.95
2019-03-20T04:30:58.339Z,1027.01
2019-03-20T04:31:58.321Z,1026.99
2019-03-20T04:32:58.299Z,1027.01
2019-03-20T04:33:58.291Z,1027.09
2019-03-20T04:34:58.279Z,1027.07
2019-03-20T04:35:58.269Z,1027.09
2019-03-20T04:36:58.269Z,1027.07
2019-03-20T04:37:58.274Z,1027.10
2019-03-20T04:38:58.233Z,1027.05
2019-03-20T04:39:58.222Z,1027.06
2019-03-20T04:40:58.213Z,1027.11
2019-03-20T04:41:58.221Z,1027.09
2019-03-20T04:42:58.190Z,1027.14
2019-03-20T04:43:58.181Z,1027.12
2019-03-20T04:44:58.173Z,1027.13
2019-03-20T04:45:58.162Z,1027.16
2019-03-20T04:46:58.157Z,1027.13
2019-03-20T04:47:58.137Z,1027.03
2019-03-20T04:48:58.128Z,1027.08
2019-03-20T04:49:58.115Z,1027.09
2019-03-20T04:50:58.106Z,1027.05
2019-03-20T04:51:58.107Z,1027.07
2019-03-20T04:52:58.087Z,1027.10
2019-03-20T04:53:58.073Z,1027.05
2019-03-20T04:54:58.062Z,1027.09
2019-03-20T04:55:58.053Z,1027.09
2019-03-20T04:56:58.053Z,1027.09
2019-03-20T04:57:58.032Z,1027.09
2019-03-20T04:58:58.022Z,1027.14
2019-03-20T04:59:58.009Z,1027.14
2019-03-20T05:00:58.001Z,1027.11
2019-03-20T05:01:58.000Z,1027.12
2019-03-20T05:02:57.979Z,1027.13
2019-03-20T05:03:57.968Z,1027.17
2019-03-20T05:04:57.957Z,1027.13
2019-03-20T05:05:57.945Z,1027.13
2019-03-20T05:06:59.294Z,1027.20
2019-03-20T05:07:57.925Z,1027.20
2019-03-20T05:08:57.914Z,1027.12
2019-03-20T05:09:57.904Z,1027.20
2019-03-20T05:10:57.895Z,1027.33
2019-03-20T05:11:57.900Z,1027.27
2019-03-20T05:12:57.871Z,1027.30
2019-03-20T05:13:57.861Z,1027.35
2019-03-20T05:14:57.852Z,1027.36
2019-03-20T05:15:57.841Z,1027.32
2019-03-20T05:16:57.839Z,1027.31
2019-03-20T05:17:57.822Z,1027.29
2019-03-20T05:18:57.810Z,1027.24
2019-03-20T05:19:57.801Z,1027.18
2019-03-20T05:20:57.789Z,1027.15
2019-03-20T05:21:57.802Z,1027.15
2019-03-20T05:22:57.772Z,1027.15
2019-03-20T05:23:57.755Z,1027.21
2019-03-20T05:24:57.751Z,1027.22
2019-03-20T05:25:57.740Z,1027.27
2019-03-20T05:26:57.723Z,1027.23
2019-03-20T05:27:57.731Z,1027.36
2019-03-20T05:28:57.703Z,1027.30
2019-03-20T05:29:57.691Z,1027.35
2019-03-20T05:30:57.681Z,1027.30
2019-03-20T05:31:57.670Z,1027.36
2019-03-20T05:32:57.668Z,1027.38
2019-03-20T05:33:57.650Z,1027.43
2019-03-20T05:34:57.637Z,1027.37
2019-03-20T05:35:57.630Z,1027.44
2019-03-20T05:37:10.643Z,1027.41
2019-03-20T05:37:57.607Z,1027.48
2019-03-20T05:38:57.599Z,1027.40
2019-03-20T05:39:57.591Z,1027.51
2019-03-20T05:40:57.576Z,1027.44
2019-03-20T05:41:57.562Z,1027.43
2019-03-20T05:42:57.562Z,1027.44
2019-03-20T05:43:57.545Z,1027.45
2019-03-20T05:44:57.530Z,1027.44
2019-03-20T05:45:57.522Z,1027.39
2019-03-20T05:46:57.523Z,1027.51
2019-03-20T05:47:57.510Z,1027.47
2019-03-20T05:48:57.490Z,1027.48
2019-03-20T05:49:57.479Z,1027.53
2019-03-20T05:50:57.470Z,1027.57
2019-03-20T05:51:57.464Z,1027.59
2019-03-20T05:52:57.458Z,1027.47
2019-03-20T05:53:57.442Z,1027.51
2019-03-20T05:54:57.426Z,1027.55
2019-03-20T05:55:57.415Z,1027.51
2019-03-20T05:56:57.404Z,1027.49
2019-03-20T05:57:57.401Z,1027.57
2019-03-20T05:58:57.392Z,1027.52
2019-03-20T05:59:57.373Z,1027.58
2019-03-20T06:00:57.362Z,1027.63
2019-03-20T06:01:57.350Z,1027.56
2019-03-20T06:02:57.353Z,1027.52
2019-03-20T06:03:57.329Z,1027.47
2019-03-20T06:04:57.324Z,1027.54
2019-03-20T06:05:57.309Z,1027.47
2019-03-20T06:06:57.295Z,1027.55
2019-03-20T06:07:57.303Z,1027.52
2019-03-20T06:08:57.275Z,1027.53
2019-03-20T06:09:57.269Z,1027.50
2019-03-20T06:10:57.254Z,1027.53
2019-03-20T06:11:57.243Z,1027.49
2019-03-20T06:12:57.246Z,1027.49
2019-03-20T06:13:57.222Z,1027.54
2019-03-20T06:14:57.214Z,1027.52
2019-03-20T06:15:57.202Z,1027.54
2019-03-20T06:16:57.193Z,1027.59
2019-03-20T06:17:57.192Z,1027.55
2019-03-20T06:18:57.168Z,1027.63
2019-03-20T06:19:57.159Z,1027.56
2019-03-20T06:20:57.156Z,1027.59
2019-03-20T06:21:57.138Z,1027.55
2019-03-20T06:22:57.136Z,1027.52
2019-03-20T06:23:57.117Z,1027.59
2019-03-20T06:24:57.109Z,1027.65
2019-03-20T06:25:57.098Z,1027.72
2019-03-20T06:26:57.084Z,1027.72
2019-03-20T06:27:57.084Z,1027.69
2019-03-20T06:28:57.064Z,1027.71
2019-03-20T06:29:57.051Z,1027.70
2019-03-20T06:30:57.041Z,1027.77
2019-03-20T06:31:57.030Z,1027.75
2019-03-20T06:32:57.053Z,1027.79
2019-03-20T06:33:57.013Z,1027.76
2019-03-20T06:34:57.003Z,1027.81
2019-03-20T06:35:56.992Z,1027.86
2019-03-20T06:36:56.978Z,1027.84
2019-03-20T06:37:56.967Z,1027.84
2019-03-20T06:38:56.972Z,1027.82
2019-03-20T06:39:56.945Z,1027.82
2019-03-20T06:40:56.940Z,1027.86
2019-03-20T06:41:56.924Z,1027.84
2019-03-20T06:42:56.914Z,1027.82
2019-03-20T06:43:56.918Z,1027.89
2019-03-20T06:44:56.895Z,1027.89
2019-03-20T06:45:56.882Z,1027.90
2019-03-20T06:46:56.884Z,1027.97
2019-03-20T06:47:56.864Z,1027.95
2019-03-20T06:48:56.861Z,1027.99
2019-03-20T06:49:56.838Z,1027.97
2019-03-20T06:50:56.828Z,1027.97
2019-03-20T06:51:56.820Z,1028.02
2019-03-20T06:52:56.807Z,1027.98
2019-03-20T06:53:56.805Z,1028.01
2019-03-20T06:54:56.783Z,1028.01
2019-03-20T06:55:56.782Z,1028.02
2019-03-20T06:56:56.765Z,1027.99
2019-03-20T06:57:56.752Z,1028.04
2019-03-20T06:58:56.751Z,1028.08
2019-03-20T06:59:56.732Z,1028.05
2019-03-20T07:00:56.722Z,1028.08
2019-03-20T07:01:56.712Z,1028.14
2019-03-20T07:02:56.704Z,1028.10
2019-03-20T07:03:56.749Z,1028.10
2019-03-20T07:04:56.677Z,1028.04
2019-03-20T07:05:56.681Z,1028.12
2019-03-20T07:06:57.379Z,1028.07
2019-03-20T07:07:56.650Z,1028.07
2019-03-20T07:08:56.645Z,1027.98
2019-03-20T07:09:56.624Z,1028.11
2019-03-20T07:10:56.613Z,1027.97
2019-03-20T07:11:56.601Z,1028.06
2019-03-20T07:12:56.595Z,1028.05
2019-03-20T07:13:56.593Z,1028.08
2019-03-20T07:14:56.574Z,1028.03
2019-03-20T07:15:56.559Z,1028.03
2019-03-20T07:16:56.550Z,1028.08
2019-03-20T07:17:56.541Z,1028.11
2019-03-20T07:18:56.536Z,1028.09
2019-03-20T07:19:56.518Z,1028.15
2019-03-20T07:20:56.504Z,1028.21
2019-03-20T07:21:56.495Z,1028.12
2019-03-20T07:22:56.487Z,1028.19
2019-03-20T07:23:56.482Z,1028.20
2019-03-20T07:24:56.462Z,1028.31
2019-03-20T07:25:56.452Z,1028.43
2019-03-20T07:26:56.443Z,1028.53
2019-03-20T07:27:56.439Z,1028.55
2019-03-20T07:28:56.429Z,1028.53
2019-03-20T07:29:57.384Z,1028.71
2019-03-20T07:30:56.479Z,1028.61
2019-03-20T07:31:56.387Z,1028.65
2019-03-20T07:32:56.379Z,1028.64
2019-03-20T07:33:56.376Z,1028.69
2019-03-20T07:34:56.353Z,1028.70
2019-03-20T07:35:56.343Z,1028.69
2019-03-20T07:36:56.334Z,1028.68
2019-03-20T07:37:56.569Z,1028.67
2019-03-20T07:38:56.327Z,1028.69
2019-03-20T07:39:56.311Z,1028.72
2019-03-20T07:40:56.290Z,1028.81
2019-03-20T07:41:56.278Z,1028.74
2019-03-20T07:42:56.278Z,1028.80
2019-03-20T07:43:56.276Z,1028.74
2019-03-20T07:44:56.249Z,1028.73
2019-03-20T07:45:56.235Z,1028.85
2019-03-20T07:46:56.242Z,1028.85
2019-03-20T07:47:56.215Z,1028.85
2019-03-20T07:48:56.216Z,1028.87
2019-03-20T07:49:56.194Z,1028.82
2019-03-20T07:50:56.184Z,1028.89
2019-03-20T07:51:56.173Z,1028.91
2019-03-20T07:52:56.160Z,1028.94
2019-03-20T07:53:56.162Z,1029.05
2019-03-20T07:54:56.141Z,1029.02
2019-03-20T07:55:56.129Z,1029.02
2019-03-20T07:56:56.121Z,1029.07
2019-03-20T07:57:56.108Z,1029.06
2019-03-20T07:58:56.129Z,1029.10
2019-03-20T07:59:56.091Z,1029.11
2019-03-20T08:00:56.078Z,1029.12
2019-03-20T08:01:56.067Z,1029.13
2019-03-20T08:02:56.060Z,1029.17
2019-03-20T08:03:56.056Z,1029.19
2019-03-20T08:04:56.048Z,1029.25
2019-03-20T08:05:56.028Z,1029.28
2019-03-20T08:06:56.016Z,1029.28
2019-03-20T08:08:06.436Z,1029.27
2019-03-20T08:08:56.995Z,1029.29
2019-03-20T08:09:56.420Z,1029.30
2019-03-20T08:10:55.975Z,1029.30
2019-03-20T08:11:55.965Z,1029.31
2019-03-20T08:12:55.961Z,1029.32
2019-03-20T08:13:55.943Z,1029.32
2019-03-20T08:14:55.947Z,1029.27
2019-03-20T08:15:55.927Z,1029.36
2019-03-20T08:16:55.915Z,1029.29
2019-03-20T08:17:55.904Z,1029.25
2019-03-20T08:18:55.894Z,1029.19
2019-03-20T08:19:55.933Z,1029.14
2019-03-20T08:20:55.873Z,1028.90
2019-03-20T08:21:55.862Z,1028.78
2019-03-20T08:22:55.852Z,1028.80
2019-03-20T08:23:55.842Z,1028.77
2019-03-20T08:24:55.934Z,1028.78
2019-03-20T08:25:55.821Z,1028.87
2019-03-20T08:26:55.814Z,1028.92
2019-03-20T08:27:55.804Z,1029.11
2019-03-20T08:28:55.796Z,1029.15
2019-03-20T08:29:55.793Z,1029.25
2019-03-20T08:30:55.818Z,1029.35
2019-03-20T08:31:55.765Z,1029.27
2019-03-20T08:32:55.755Z,1029.35
2019-03-20T08:33:55.818Z,1029.38
2019-03-20T08:34:55.741Z,1029.36
2019-03-20T08:35:55.738Z,1029.37
2019-03-20T08:36:55.735Z,1029.39
2019-03-20T08:37:55.716Z,1029.37
2019-03-20T08:38:55.691Z,1029.35
2019-03-20T08:39:55.690Z,1029.26
2019-03-20T08:40:55.742Z,1029.30
2019-03-20T08:41:55.698Z,1029.40
2019-03-20T08:42:55.677Z,1029.42
2019-03-20T08:43:55.648Z,1029.32
2019-03-20T08:44:55.805Z,1029.33
2019-03-20T08:45:56.421Z,1029.31
2019-03-20T08:46:55.622Z,1029.35
2019-03-20T08:47:55.624Z,1029.39
2019-03-20T08:48:55.598Z,1029.40
2019-03-20T08:49:55.593Z,1029.36
2019-03-20T08:50:55.614Z,1029.41
2019-03-20T08:51:55.562Z,1029.42
2019-03-20T08:52:55.552Z,1029.38
2019-03-20T08:53:56.359Z,1029.46
2019-03-20T08:54:55.592Z,1029.40
2019-03-20T08:55:55.524Z,1029.41
2019-03-20T08:56:55.512Z,1029.41
2019-03-20T08:57:55.503Z,1029.38
2019-03-20T08:58:55.509Z,1029.47
2019-03-20T08:59:55.500Z,1029.35
2019-03-20T09:00:55.481Z,1029.36
2019-03-20T09:01:55.470Z,1029.43
2019-03-20T09:02:55.458Z,1029.35
2019-03-20T09:03:55.451Z,1029.39
2019-03-20T09:04:55.446Z,1029.39
2019-03-20T09:05:55.428Z,1029.34
2019-03-20T09:06:55.415Z,1029.34
2019-03-20T09:07:55.407Z,1029.33
2019-03-20T09:08:55.396Z,1029.32
2019-03-20T09:09:55.396Z,1029.21
2019-03-20T09:10:55.376Z,1029.18
2019-03-20T09:11:55.375Z,1029.18
2019-03-20T09:12:55.356Z,1029.18
2019-03-20T09:13:55.351Z,1029.15
2019-03-20T09:14:55.520Z,1029.12
2019-03-20T09:15:55.329Z,1029.11
2019-03-20T09:16:55.320Z,1029.17
2019-03-20T09:17:55.310Z,1029.20
2019-03-20T09:18:55.300Z,1029.32
2019-03-20T09:19:55.294Z,1029.39
2019-03-20T09:20:55.285Z,1029.41
2019-03-20T09:21:55.268Z,1029.56
2019-03-20T09:22:55.265Z,1029.46
2019-03-20T09:23:55.247Z,1029.35
2019-03-20T09:24:55.236Z,1029.22
2019-03-20T09:25:55.238Z,1029.18
2019-03-20T09:26:55.218Z,1029.18
2019-03-20T09:27:55.206Z,1029.18
2019-03-20T09:28:55.197Z,1029.21
2019-03-20T09:29:55.192Z,1029.24
2019-03-20T09:30:55.185Z,1029.26
2019-03-20T09:31:55.168Z,1029.22
2019-03-20T09:32:55.161Z,1029.20
2019-03-20T09:33:55.283Z,1029.25
2019-03-20T09:34:55.150Z,1029.14
2019-03-20T09:35:55.143Z,1029.15
2019-03-20T09:36:55.117Z,1029.12
2019-03-20T09:37:55.113Z,1029.16
2019-03-20T09:38:55.096Z,1029.14
2019-03-20T09:39:55.088Z,1029.15
2019-03-20T09:40:55.086Z,1029.13
2019-03-20T09:41:55.070Z,1029.15
2019-03-20T09:42:55.060Z,1029.16
2019-03-20T09:43:55.051Z,1029.13
2019-03-20T09:44:55.032Z,1029.09
2019-03-20T09:45:56.926Z,1029.05
2019-03-20T09:46:55.019Z,1029.13
2019-03-20T09:47:55.007Z,1029.05
2019-03-20T09:48:54.994Z,1029.06
2019-03-20T09:49:54.983Z,1029.10
2019-03-20T09:50:54.987Z,1029.06
2019-03-20T09:51:54.962Z,1029.03
2019-03-20T09:52:54.954Z,1029.02
2019-03-20T09:53:54.947Z,1029.06
2019-03-20T09:54:54.957Z,1029.06
2019-03-20T09:55:54.930Z,1029.11
2019-03-20T09:56:54.910Z,1029.11
2019-03-20T09:57:54.902Z,1029.09
2019-03-20T09:58:54.895Z,1029.04
2019-03-20T09:59:54.880Z,1029.00
2019-03-20T10:00:54.880Z,1029.01
2019-03-20T10:01:54.869Z,1029.02
2019-03-20T10:02:54.851Z,1028.98
2019-03-20T10:03:54.841Z,1028.87
2019-03-20T10:04:54.833Z,1028.88
2019-03-20T10:05:54.829Z,1028.87
2019-03-20T10:06:54.812Z,1028.84
2019-03-20T10:07:54.804Z,1028.82
2019-03-20T10:08:54.785Z,1028.79
2019-03-20T10:09:54.778Z,1028.80
2019-03-20T10:10:54.825Z,1028.80
2019-03-20T10:11:54.757Z,1028.84
2019-03-20T10:12:54.746Z,1028.82
2019-03-20T10:13:54.733Z,1028.77
2019-03-20T10:14:54.721Z,1028.78
2019-03-20T10:15:54.712Z,1028.75
2019-03-20T10:16:54.715Z,1028.71
2019-03-20T10:17:54.697Z,1028.72
2019-03-20T10:18:54.680Z,1028.66
2019-03-20T10:19:54.671Z,1028.65
2019-03-20T10:20:54.678Z,1028.65
2019-03-20T10:21:54.668Z,1028.61
2019-03-20T10:22:54.638Z,1028.55
2019-03-20T10:23:54.630Z,1028.60
2019-03-20T10:24:54.615Z,1028.58
2019-03-20T10:25:54.605Z,1028.52
2019-03-20T10:26:54.603Z,1028.52
2019-03-20T10:27:54.583Z,1028.54
2019-03-20T10:28:54.575Z,1028.51
2019-03-20T10:29:54.562Z,1028.54
2019-03-20T10:30:54.550Z,1028.43
2019-03-20T10:31:54.551Z,1028.47
2019-03-20T10:32:54.528Z,1028.46
2019-03-20T10:33:54.524Z,1028.38
2019-03-20T10:34:54.508Z,1028.43
2019-03-20T10:35:54.499Z,1028.48
2019-03-20T10:36:54.500Z,1028.47
2019-03-20T10:37:54.479Z,1028.51
2019-03-20T10:39:05.774Z,1028.51
2019-03-20T10:39:55.466Z,1028.50
2019-03-20T10:40:54.444Z,1028.51
2019-03-20T10:41:54.457Z,1028.41
2019-03-20T10:42:54.426Z,1028.48
2019-03-20T10:43:54.411Z,1028.53
2019-03-20T10:44:54.406Z,1028.61
2019-03-20T10:45:54.395Z,1028.61
2019-03-20T10:46:54.388Z,1028.63
2019-03-20T10:47:54.377Z,1028.67
2019-03-20T10:48:56.354Z,1028.61
2019-03-20T10:49:54.348Z,1028.61
2019-03-20T10:50:54.343Z,1028.56
2019-03-20T10:51:54.342Z,1028.57
2019-03-20T10:52:54.322Z,1028.56
2019-03-20T10:53:54.305Z,1028.56
2019-03-20T10:54:54.295Z,1028.62
2019-03-20T10:55:54.286Z,1028.60
2019-03-20T10:56:54.284Z,1028.66
2019-03-20T10:57:54.264Z,1028.68
2019-03-20T10:58:54.262Z,1028.62
2019-03-20T10:59:54.241Z,1028.66
2019-03-20T11:00:54.232Z,1028.60
2019-03-20T11:01:54.230Z,1028.58
2019-03-20T11:02:54.219Z,1028.58
2019-03-20T11:03:54.200Z,1028.58
2019-03-20T11:04:54.196Z,1028.59
2019-03-20T11:05:54.179Z,1028.67
2019-03-20T11:06:54.189Z,1028.61
2019-03-20T11:07:54.156Z,1028.57
2019-03-20T11:08:54.148Z,1028.56
2019-03-20T11:09:54.134Z,1028.48
2019-03-20T11:10:54.125Z,1028.51
2019-03-20T11:11:54.125Z,1028.48
2019-03-20T11:12:54.108Z,1028.46
2019-03-20T11:13:54.091Z,1028.45
2019-03-20T11:14:54.081Z,1028.43
2019-03-20T11:15:54.068Z,1028.49
2019-03-20T11:16:54.068Z,1028.40
2019-03-20T11:17:54.046Z,1028.42
2019-03-20T11:18:54.057Z,1028.51
2019-03-20T11:19:56.220Z,1028.52
2019-03-20T11:20:54.015Z,1028.50
2019-03-20T11:21:54.015Z,1028.56
2019-03-20T11:22:53.993Z,1028.51
2019-03-20T11:23:53.983Z,1028.56
2019-03-20T11:24:53.973Z,1028.57
2019-03-20T11:25:53.960Z,1028.46
2019-03-20T11:26:53.952Z,1028.56
2019-03-20T11:27:53.953Z,1028.53
2019-03-20T11:28:53.939Z,1028.49
2019-03-20T11:29:53.919Z,1028.47
2019-03-20T11:30:53.909Z,1028.43
2019-03-20T11:31:53.895Z,1028.39
2019-03-20T11:32:53.896Z,1028.34
2019-03-20T11:33:53.879Z,1028.41
2019-03-20T11:34:53.865Z,1028.36
2019-03-20T11:35:53.852Z,1028.33
2019-03-20T11:36:53.843Z,1028.34
2019-03-20T11:37:53.844Z,1028.17
2019-03-20T11:38:53.820Z,1028.21
2019-03-20T11:39:53.810Z,1028.32
2019-03-20T11:40:53.799Z,1028.32
2019-03-20T11:41:53.841Z,1028.28
2019-03-20T11:42:53.793Z,1028.33
2019-03-20T11:43:53.765Z,1028.28
2019-03-20T11:44:53.756Z,1028.29
2019-03-20T11:45:53.747Z,1028.27
2019-03-20T11:46:53.733Z,1028.31
2019-03-20T11:47:53.734Z,1028.30
2019-03-20T11:48:53.713Z,1028.25
2019-03-20T11:49:53.703Z,1028.21
2019-03-20T11:50:53.697Z,1028.24
2019-03-20T11:51:53.687Z,1028.15
2019-03-20T11:52:53.684Z,1028.26
2019-03-20T11:53:53.676Z,1028.19
2019-03-20T11:54:53.666Z,1028.25
2019-03-20T11:55:53.640Z,1028.23
2019-03-20T11:56:53.626Z,1028.30
2019-03-20T11:57:53.681Z,1028.26
2019-03-20T11:58:53.627Z,1028.24
2019-03-20T11:59:53.597Z,1028.21
2019-03-20T12:00:53.601Z,1028.19
2019-03-20T12:01:53.578Z,1028.16
2019-03-20T12:02:53.574Z,1028.12
2019-03-20T12:03:53.550Z,1028.27
2019-03-20T12:04:54.080Z,1028.27
2019-03-20T12:05:53.531Z,1028.30
2019-03-20T12:06:53.522Z,1028.25